Latest Weather Observations for Rutherglen

IDV60801

Issued at 8:02 pm EST Sunday 24 September 2017 (issued every 30 minutes, with the page automatically refreshed every 10 minutes)

About weather observations | Map of weather stations | Latest weather observations for VIC | Other Formats
Station Details ID: 082039 Name: RUTHERGLEN RESEARCH Lat: -36.10 Lon: 146.51 Height: 175.0 m
Data from the previous 72 hours. | See also: Recent months at Rutherglen
Date/Time
EST
Temp
°C
App
Temp
°C
Dew
Point
°C
Rel
Hum
%
Delta-T
°C
Wind Press
QNH
hPa
Press
MSL
hPa
Rain since
9am
mm
Dir  Spd
km/h
Gust
km/h
Spd
kts
Gust
kts
24/08:00pm 6.4 4.3 4.1 85 1.0 NNE 4 7 2 4 - - 0.0
24/07:30pm 8.0 6.7 4.0 76 1.7 CALM 0 4 0 2 - - 0.0
24/07:00pm 11.6 9.0 4.1 60 3.4 WNW 7 11 4 6 - - 0.0
24/06:30pm 13.4 10.8 4.3 54 4.2 WNW 7 9 4 5 - - 0.0
24/06:00pm 15.4 11.7 4.5 48 5.1 WNW 13 17 7 9 - - 0.0
24/05:30pm 17.0 12.0 4.7 44 5.9 WNW 20 32 11 17 - - 0.0
24/05:00pm 18.1 13.2 5.0 42 6.4 WNW 20 32 11 17 - - 0.0
24/04:30pm 18.4 11.9 4.6 40 6.7 WNW 28 41 15 22 - - 0.0
24/04:00pm 18.9 12.8 4.7 39 6.9 WNW 26 39 14 21 - - 0.0
24/03:30pm 19.4 14.6 7.2 45 6.2 WNW 22 32 12 17 - - 0.0
24/03:00pm 19.1 13.0 6.6 44 6.3 W 28 41 15 22 - - 0.0
24/02:30pm 19.1 13.3 6.2 43 6.5 WNW 26 37 14 20 - - 0.0
24/02:00pm 18.3 13.8 7.1 48 5.7 WNW 20 33 11 18 - - 0.0
24/01:30pm 18.6 12.4 8.0 50 5.5 WNW 30 41 16 22 - - 0.0
24/01:00pm 17.8 11.1 5.7 45 5.9 WNW 30 41 16 22 - - 0.0
24/12:30pm 18.3 12.4 5.8 44 6.2 WNW 26 39 14 21 - - 0.0
24/12:00pm 18.4 12.4 5.3 42 6.4 NW 26 39 14 21 - - 0.0
24/11:30am 17.6 12.1 7.4 51 5.2 NW 26 37 14 20 - - 0.0
24/11:00am 16.6 11.9 7.8 56 4.5 NW 22 41 12 22 - - 0.0
24/10:30am 16.3 12.6 8.0 58 4.2 NNW 17 28 9 15 - - 0.0
24/10:00am 15.2 11.0 8.4 64 3.5 NNW 20 32 11 17 - - 0.0
24/09:30am 14.4 10.5 8.6 68 3.0 NNW 19 30 10 16 - - 0.0
24/09:00am 14.2 10.6 8.4 68 2.9 NNW 17 24 9 13 - - 0.0
24/08:30am 13.1 10.7 8.6 74 2.3 N 11 17 6 9 - - 0.0
24/08:00am 12.4 10.3 8.3 76 2.0 NNE 9 13 5 7 - - 0.0
24/07:30am 10.7 8.1 7.6 81 1.5 NNE 11 15 6 8 - - 0.0
24/07:00am 10.2 7.9 7.3 82 1.4 NNE 9 15 5 8 - - 0.0
24/06:30am 9.2 7.2 7.0 86 1.0 NE 7 11 4 6 - - 0.0
24/06:00am 10.0 8.0 7.1 82 1.4 N 7 11 4 6 - - 0.0
24/05:30am 10.0 8.0 7.1 82 1.4 NNW 7 11 4 6 - - 0.0
24/05:00am 10.5 8.1 7.0 79 1.7 NNW 9 13 5 7 - - 0.0
24/04:30am 10.7 8.3 6.8 77 1.9 NW 9 13 5 7 - - 0.0
24/04:00am 11.0 8.2 7.1 77 1.9 NW 11 17 6 9 - - 0.0
24/03:30am 10.9 8.9 7.2 78 1.8 WNW 7 11 4 6 - - 0.0
24/03:00am 12.1 9.0 7.4 73 2.3 WNW 13 19 7 10 - - 0.0
24/02:30am 12.4 9.0 7.5 72 2.4 WNW 15 22 8 12 - - 0.0
24/02:00am 13.6 10.5 7.2 65 3.1 WNW 13 20 7 11 - - 0.0
24/01:30am 13.7 9.4 7.0 64 3.3 WNW 19 28 10 15 - - 0.0
24/01:00am 13.8 9.8 6.7 62 3.5 W 17 26 9 14 - - 0.0
24/12:30am 14.8 9.8 6.4 57 4.1 WNW 22 30 12 16 - - 0.0
24/12:00am 15.0 11.1 7.1 59 3.9 WNW 17 26 9 14 - - 0.0
 
Date/Time
EST
Temp
°C
App
Temp
°C
Dew
Point
°C
Rel
Hum
%
Delta-T
°C
Wind Press
QNH
hPa
Press
MSL
hPa
Rain since
9am
mm
Dir  Spd
km/h
Gust
km/h
Spd
kts
Gust
kts
23/11:30pm 15.7 11.3 6.7 55 4.4 W 19 28 10 15 - - 0.0
23/11:00pm 17.0 11.4 7.1 52 5.0 W 26 39 14 21 - - 0.0
23/10:30pm 17.8 12.9 6.7 48 5.6 WSW 22 35 12 19 - - 0.0
23/10:00pm 17.8 13.5 7.0 49 5.4 WSW 19 28 10 15 - - 0.0
23/09:30pm 18.6 14.1 7.1 47 5.8 WSW 20 32 11 17 - - 0.0
23/09:00pm 20.0 13.2 7.1 43 6.6 WSW 32 48 17 26 - - 0.0
23/08:41pm 21.3 15.7 8.6 44 6.7 WSW 28 52 15 28 - - 0.0
23/08:30pm 21.0 16.3 9.3 47 6.3 WSW 24 39 13 21 - - 0.0
23/08:27pm 21.3 15.8 9.2 46 6.5 WSW 28 46 15 25 - - 0.0
23/08:00pm 22.8 16.3 8.1 39 7.8 WSW 32 44 17 24 - - 0.0
23/07:30pm 23.6 18.6 8.1 37 8.3 W 24 33 13 18 - - 0.0
23/07:00pm 24.7 19.9 7.4 33 9.2 W 22 28 12 15 - - 0.0
23/06:30pm 24.6 20.4 7.3 33 9.1 W 19 26 10 14 - - 0.0
23/06:00pm 24.5 20.8 9.3 38 8.3 WSW 19 24 10 13 - - 0.0
23/05:30pm 28.3 24.1 7.5 27 11.3 W 19 44 10 24 - - 0.0
23/05:00pm 26.3 25.2 12.0 41 8.3 NNE 9 15 5 8 - - 0.0
23/04:30pm 25.7 24.0 11.1 40 8.3 NE 11 17 6 9 - - 0.0
23/04:00pm 25.7 23.9 10.7 39 8.5 NE 11 15 6 8 - - 0.0
23/03:30pm 25.4 21.7 9.3 36 8.9 ENE 19 26 10 14 - - 0.0
23/03:00pm 25.5 22.7 11.3 41 8.1 ENE 17 24 9 13 - - 0.0
23/02:30pm 26.7 22.9 9.1 33 9.7 ENE 19 28 10 15 - - 0.0
23/02:00pm 26.7 22.9 9.1 33 9.7 ENE 19 28 10 15 - - 0.0
23/01:30pm 27.2 23.8 10.4 35 9.5 ENE 19 26 10 14 - - 0.0
23/01:00pm 27.8 24.4 9.1 31 10.4 ENE 17 33 9 18 - - 0.0
23/12:30pm 26.9 22.5 7.4 29 10.5 NE 20 32 11 17 - - 0.0
23/12:00pm 26.9 22.5 7.4 29 10.5 NE 20 30 11 16 - - 0.0
23/11:30am 26.2 21.7 6.8 29 10.3 NE 20 33 11 18 - - 0.0
23/11:00am 25.0 20.8 7.6 33 9.3 NE 19 32 10 17 - - 0.0
23/10:30am 23.8 19.9 9.4 40 7.9 ENE 20 30 11 16 - - 0.0
23/10:00am 22.9 18.1 5.8 33 8.7 ENE 20 32 11 17 - - 0.0
23/09:30am 21.8 16.8 4.8 33 8.4 ENE 20 30 11 16 - - 0.0
23/09:00am 20.9 16.1 4.5 34 8.0 ENE 19 28 10 15 - - 0.0
23/08:30am 18.9 13.9 3.5 36 7.3 ENE 19 32 10 17 - - 0.0
23/08:00am 16.9 15.6 7.8 55 4.6 SSW 4 7 2 4 - - 0.0
23/07:30am 18.5 14.1 2.8 35 7.3 E 15 19 8 10 - - 0.0
23/07:00am 17.1 12.8 1.1 34 7.1 E 13 19 7 10 - - 0.0
23/06:30am 15.9 11.2 1.2 37 6.5 ENE 15 26 8 14 - - 0.0
23/06:26am 15.1 10.6 2.3 42 5.7 ENE 15 26 8 14 - - 0.0
23/06:00am 10.1 7.7 4.5 68 2.5 E 6 11 3 6 - - 0.0
23/05:30am 9.6 6.8 2.2 60 3.1 S 6 9 3 5 - - 0.0
23/05:00am 12.4 8.9 1.1 46 4.8 E 9 13 5 7 - - 0.0
23/04:30am 13.4 9.6 2.0 46 5.0 E 11 17 6 9 - - 0.0
23/04:00am 13.7 9.1 1.7 44 5.2 E 15 20 8 11 - - 0.0
23/03:30am 13.7 9.9 1.7 44 5.2 E 11 15 6 8 - - 0.0
23/03:00am 13.8 10.1 2.1 45 5.2 E 11 13 6 7 - - 0.0
23/02:30am 14.6 10.8 1.8 42 5.7 ENE 11 15 6 8 - - 0.0
23/02:00am 14.5 11.0 1.1 40 5.8 E 9 13 5 7 - - 0.0
23/01:30am 15.6 11.4 1.4 38 6.3 ENE 13 17 7 9 - - 0.0
23/01:00am 15.3 11.4 1.1 38 6.2 E 11 15 6 8 - - 0.0
23/12:30am 15.1 11.2 1.3 39 6.1 ENE 11 15 6 8 - - 0.0
23/12:00am 15.5 11.7 2.0 40 6.0 ENE 11 17 6 9 - - 0.0
 
Date/Time
EST
Temp
°C
App
Temp
°C
Dew
Point
°C
Rel
Hum
%
Delta-T
°C
Wind Press
QNH
hPa
Press
MSL
hPa
Rain since
9am
mm
Dir  Spd
km/h
Gust
km/h
Spd
kts
Gust
kts
22/11:30pm 16.8 12.6 1.7 36 6.8 ENE 13 17 7 9 - - 0.0
22/11:00pm 16.8 12.7 2.4 38 6.6 ENE 13 19 7 10 - - 0.0
22/10:30pm 16.1 12.2 3.2 42 5.9 ENE 13 17 7 9 - - 0.0
22/10:00pm 16.4 12.3 4.4 45 5.7 ENE 15 20 8 11 - - 0.0
22/09:30pm 12.8 9.7 5.7 62 3.4 E 11 15 6 8 - - 0.0
22/09:00pm 11.1 8.5 6.3 72 2.3 E 9 11 5 6 - - 0.0
22/08:30pm 12.1 10.0 6.6 69 2.6 E 7 9 4 5 - - 0.0
22/08:00pm 12.4 10.5 6.7 68 2.7 E 6 9 3 5 - - 0.0
22/07:30pm 13.5 11.4 6.8 64 3.3 ESE 7 9 4 5 - - 0.0
22/07:00pm 12.0 9.3 7.3 73 2.3 E 11 15 6 8 - - 0.0
22/06:30pm 15.0 12.8 8.0 63 3.5 ESE 9 11 5 6 - - 0.0
22/06:00pm 18.2 15.2 7.9 51 5.3 ESE 13 15 7 8 - - 0.0
22/05:30pm 22.2 19.1 7.2 38 7.8 ESE 13 17 7 9 - - 0.0
22/05:00pm 24.3 22.6 9.8 40 8.0 E 9 13 5 7 - - 0.0
22/04:30pm 25.3 22.0 6.5 30 9.8 E 13 17 7 9 - - 0.0
22/04:00pm 26.0 23.0 6.1 28 10.4 E 11 19 6 10 - - 0.0
22/03:30pm 26.7 23.2 5.6 26 11.0 ENE 13 17 7 9 - - 0.0
22/03:00pm 26.5 23.7 7.0 29 10.4 E 11 15 6 8 - - 0.0
22/02:30pm 26.3 23.8 6.4 28 10.5 NE 9 13 5 7 - - 0.0
22/02:00pm 26.3 23.2 3.5 23 11.4 NE 9 19 5 10 - - 0.0
22/01:30pm 24.2 21.0 2.9 25 10.4 N 9 15 5 8 - - 0.0
22/01:00pm 24.6 21.5 3.8 26 10.3 N 9 17 5 9 - - 0.0
22/12:30pm 24.2 20.5 4.6 28 9.8 NNE 13 20 7 11 - - 0.0
22/12:00pm 23.5 19.7 4.0 28 9.6 NNE 13 20 7 11 - - 0.0
22/11:30am 22.4 18.9 5.4 33 8.6 NNE 13 20 7 11 - - 0.0
22/11:00am 21.2 17.5 4.7 34 8.1 NNE 13 20 7 11 - - 0.0
22/10:30am 20.3 16.0 3.5 33 8.0 NE 15 22 8 12 - - 0.0
22/10:00am 19.5 16.3 6.9 44 6.4 NE 13 24 7 13 - - 0.0
22/09:30am 18.8 16.2 6.3 44 6.3 NE 9 15 5 8 - - 0.0
22/09:00am 18.1 14.8 6.3 46 5.9 ENE 13 19 7 10 - - 0.0
22/08:30am 16.7 12.9 5.6 48 5.4 ENE 15 22 8 12 - - 0.0
22/08:00am 15.2 11.2 5.1 51 4.8 ENE 15 20 8 11 - - 0.0
22/07:30am 14.8 11.4 5.9 55 4.3 E 13 19 7 10 - - 0.0
22/07:00am 12.1 9.2 4.8 61 3.4 E 9 11 5 6 - - 0.0
22/06:30am 11.7 7.9 4.0 59 3.5 ENE 13 15 7 8 - - 0.0
22/06:00am 11.8 9.3 3.6 57 3.7 N 6 13 3 7 - - 0.0
22/05:30am 11.0 8.5 4.0 62 3.1 ENE 6 13 3 7 - - 0.0
22/05:00am 10.7 7.0 4.6 66 2.8 ENE 13 19 7 10 - - 0.0
22/04:30am 12.1 8.5 4.8 61 3.4 E 13 22 7 12 - - 0.0
22/04:00am 12.3 9.1 5.0 61 3.4 ENE 11 19 6 10 - - 0.0
22/03:30am 12.3 9.4 4.8 60 3.5 ENE 9 15 5 8 - - 0.0
22/03:00am 13.0 10.5 4.7 57 3.9 ENE 7 11 4 6 - - 0.0
22/02:30am 13.5 11.2 4.6 55 4.1 NE 6 9 3 5 - - 0.0
22/02:00am 14.2 10.7 5.3 55 4.2 E 13 19 7 10 - - 0.0
22/01:30am 14.4 11.0 5.7 56 4.2 E 13 17 7 9 - - 0.0
22/01:00am 14.9 11.4 5.4 53 4.5 E 13 20 7 11 - - 0.0
22/12:30am 14.9 11.5 5.7 54 4.4 ENE 13 20 7 11 - - 0.0
22/12:00am 14.4 11.0 6.0 57 4.1 E 13 19 7 10 - - 0.0
 
Date/Time
EST
Temp
°C
App
Temp
°C
Dew
Point
°C
Rel
Hum
%
Delta-T
°C
Wind Press
QNH
hPa
Press
MSL
hPa
Rain since
9am
mm
Dir  Spd
km/h
Gust
km/h
Spd
kts
Gust
kts
21/11:30pm 13.8 10.8 6.2 60 3.7 E 11 15 6 8 - - 0.0
21/11:00pm 14.1 10.8 6.5 60 3.7 E 13 20 7 11 - - 0.0
21/10:30pm 14.3 10.7 6.6 60 3.8 E 15 20 8 11 - - 0.0
21/10:00pm 14.4 11.1 6.5 59 3.8 ENE 13 20 7 11 - - 0.0
21/09:30pm 14.7 11.1 6.8 59 3.9 ENE 15 20 8 11 - - 0.0
21/09:00pm 11.0 9.8 6.4 73 2.2 NE 2 7 1 4 - - 0.0
21/08:30pm 11.7 9.2 6.4 70 2.5 ESE 9 13 5 7 - - 0.0

Other Formats:

Comma delimited format used in spreadsheet applications
http://www.bom.gov.au/fwo/IDV60801/IDV60801.95837.axf

JavaScript Object Notation format (JSON) in row-major order
http://www.bom.gov.au/fwo/IDV60801/IDV60801.95837.json